createdAt,value
2023-01-05T05:16:38.303Z,9.60
2023-01-05T05:19:06.663Z,9.97
2023-01-05T05:21:33.198Z,9.76
2023-01-05T05:23:59.722Z,10.24
2023-01-05T05:26:26.790Z,10.13
2023-01-05T05:28:54.293Z,9.55
2023-01-05T05:31:20.793Z,9.84
2023-01-05T05:33:47.299Z,9.47
2023-01-05T05:36:33.607Z,9.76
2023-01-05T05:39:00.340Z,9.93
2023-01-05T05:41:27.187Z,9.36
2023-01-05T05:43:53.983Z,9.31
2023-01-05T05:46:20.583Z,9.21
2023-01-05T05:48:50.064Z,9.81
2023-01-05T05:51:16.594Z,9.75
2023-01-05T05:53:43.331Z,9.51
2023-01-05T05:56:09.877Z,9.40
2023-01-05T05:58:36.336Z,9.55
2023-01-05T06:01:02.897Z,9.62
2023-01-05T06:03:29.500Z,9.44
2023-01-05T06:05:55.969Z,9.21
2023-01-05T06:08:24.051Z,9.64
2023-01-05T06:10:50.930Z,9.90
2023-01-05T06:13:17.841Z,9.78
2023-01-05T06:15:44.428Z,9.24
2023-01-05T06:18:10.886Z,9.71
2023-01-05T06:20:37.473Z,9.53
2023-01-05T06:23:04.411Z,9.42
2023-01-05T06:25:31.010Z,9.42
2023-01-05T06:27:57.582Z,9.24
2023-01-05T06:30:24.185Z,9.07
2023-01-05T06:32:50.666Z,9.45
2023-01-05T06:35:17.541Z,9.59
2023-01-05T06:37:44.321Z,9.50
2023-01-05T06:40:13.458Z,9.18
2023-01-05T06:42:40.784Z,9.16
2023-01-05T06:45:13.212Z,9.50
2023-01-05T06:47:40.139Z,10.33
2023-01-05T06:50:07.165Z,9.13
2023-01-05T06:52:36.756Z,9.15
2023-01-05T06:55:04.573Z,9.18
2023-01-05T06:57:36.601Z,9.21
2023-01-05T07:00:09.024Z,9.55
2023-01-05T07:02:38.949Z,9.26
2023-01-05T07:05:06.421Z,9.22
2023-01-05T07:07:33.494Z,9.39
2023-01-05T07:10:00.232Z,9.27
2023-01-05T07:12:26.984Z,9.59
2023-01-05T07:14:57.472Z,9.33
2023-01-05T07:17:24.987Z,9.41
2023-01-05T07:19:51.595Z,9.80
2023-01-05T07:22:18.136Z,9.34
2023-01-05T07:24:44.735Z,9.60
2023-01-05T07:27:12.231Z,8.81
2023-01-05T07:29:38.831Z,9.25
2023-01-05T07:32:05.734Z,9.33
2023-01-05T07:34:32.349Z,9.54
2023-01-05T07:36:58.875Z,9.22
2023-01-05T07:39:25.513Z,8.94
2023-01-05T07:42:00.952Z,9.11
2023-01-05T07:44:27.590Z,8.90
2023-01-05T07:46:54.140Z,9.01
2023-01-05T07:49:49.967Z,9.10
2023-01-05T07:52:21.391Z,8.84
2023-01-05T07:54:51.202Z,8.56
2023-01-05T07:57:17.954Z,9.72
2023-01-05T07:59:44.943Z,10.07
2023-01-05T08:02:12.261Z,10.08
2023-01-05T08:04:39.188Z,9.65
2023-01-05T08:07:11.167Z,9.54
2023-01-05T08:09:57.445Z,9.38
2023-01-05T08:12:24.003Z,9.94
2023-01-05T08:14:50.464Z,10.08
2023-01-05T08:17:17.154Z,9.15
2023-01-05T08:19:43.658Z,9.18
2023-01-05T08:22:10.191Z,9.00
2023-01-05T08:24:36.714Z,9.24
2023-01-05T08:27:04.086Z,8.93
2023-01-05T08:29:31.122Z,9.38
2023-01-05T08:31:57.653Z,9.81
2023-01-05T08:34:25.819Z,10.14
2023-01-05T08:36:55.288Z,9.23
2023-01-05T08:39:21.839Z,8.99
2023-01-05T08:41:48.568Z,9.10
2023-01-05T08:44:15.602Z,8.97
2023-01-05T08:46:42.178Z,9.55
2023-01-05T08:49:09.758Z,8.88
2023-01-05T08:51:37.417Z,9.27
2023-01-05T08:54:04.239Z,9.43
2023-01-05T08:56:38.093Z,9.61
2023-01-05T08:59:05.818Z,8.89
2023-01-05T09:01:32.620Z,9.27
2023-01-05T09:03:59.186Z,9.59
2023-01-05T09:06:25.796Z,9.34
2023-01-05T09:08:52.305Z,9.36
2023-01-05T09:11:22.072Z,9.44
2023-01-05T09:13:54.116Z,9.91
2023-01-05T09:19:10.866Z,9.90
2023-01-05T09:21:39.506Z,9.45
2023-01-05T09:24:07.528Z,9.33
2023-01-05T09:26:34.269Z,9.43
2023-01-05T09:29:00.974Z,9.18
2023-01-05T09:31:27.779Z,9.60
2023-01-05T09:33:54.500Z,9.68
2023-01-05T09:36:21.030Z,10.02
2023-01-05T09:38:54.387Z,9.92
2023-01-05T09:41:22.992Z,9.39
2023-01-05T09:43:54.642Z,10.18
2023-01-05T09:46:25.269Z,10.30
2023-01-05T09:48:55.701Z,10.80
2023-01-05T09:51:22.419Z,9.83
2023-01-05T09:53:49.278Z,10.71
2023-01-05T09:59:36.351Z,9.81
2023-01-05T10:02:37.452Z,9.96
2023-01-05T10:05:06.024Z,9.19
2023-01-05T10:07:53.600Z,9.48
2023-01-05T10:14:53.128Z,9.76
2023-01-05T10:17:43.555Z,9.81
2023-01-05T10:20:46.731Z,10.14
2023-01-05T10:23:26.399Z,9.80
2023-01-05T10:36:00.719Z,10.14
2023-01-05T10:41:39.979Z,10.47
2023-01-05T10:44:58.387Z,10.08
2023-01-05T10:47:26.146Z,9.83
2023-01-05T10:49:54.462Z,10.35
2023-01-05T10:52:22.813Z,9.73
2023-01-05T10:55:31.248Z,9.85
2023-01-05T10:58:27.467Z,9.87
2023-01-05T11:01:44.416Z,10.02
2023-01-05T11:08:32.257Z,10.03
2023-01-05T11:11:04.314Z,10.47
2023-01-05T11:14:05.525Z,10.48
2023-01-05T11:16:35.786Z,10.04
2023-01-05T11:19:12.602Z,10.93
2023-01-05T11:21:41.793Z,10.82
2023-01-05T11:25:14.775Z,10.55
2023-01-05T11:29:08.310Z,10.45
2023-01-05T11:31:53.601Z,10.47
2023-01-05T11:34:39.429Z,10.37
2023-01-05T11:37:10.144Z,10.83
2023-01-05T11:43:27.912Z,10.46
2023-01-05T11:46:07.024Z,10.56
2023-01-05T11:48:42.101Z,10.92
2023-01-05T11:51:34.457Z,11.15
2023-01-05T11:54:34.999Z,10.73
2023-01-05T11:58:01.252Z,10.40
2023-01-05T12:01:21.614Z,10.57
2023-01-05T12:04:19.172Z,11.11
2023-01-05T12:07:40.783Z,10.92
2023-01-05T12:10:49.679Z,10.78
2023-01-05T12:14:14.332Z,11.06
2023-01-05T12:17:34.513Z,11.34
2023-01-05T12:20:33.201Z,10.50
2023-01-05T12:23:29.111Z,11.78
2023-01-05T12:27:07.728Z,10.88
2023-01-05T12:45:10.440Z,12.79
2023-01-05T12:47:59.478Z,12.64
2023-01-05T12:50:33.869Z,11.87
2023-01-05T12:53:18.083Z,10.93
2023-01-05T12:55:55.850Z,12.29
2023-01-05T12:58:32.256Z,11.47
2023-01-05T13:01:01.060Z,11.64
2023-01-05T13:03:39.655Z,10.92
2023-01-05T13:06:17.982Z,11.47
2023-01-05T13:08:52.070Z,11.36
2023-01-05T13:11:31.099Z,10.44
2023-01-05T13:14:27.303Z,10.39
2023-01-05T13:17:00.858Z,11.09
2023-01-05T13:19:44.726Z,10.68
2023-01-05T13:22:19.934Z,11.17
2023-01-05T13:24:53.001Z,10.78
2023-01-05T13:27:19.588Z,11.87
2023-01-05T13:29:54.315Z,12.30
2023-01-05T13:32:49.331Z,12.88
2023-01-05T13:35:49.094Z,12.92
2023-01-05T13:38:31.314Z,12.80
2023-01-05T13:41:25.936Z,12.88
2023-01-05T13:44:33.820Z,12.40
2023-01-05T13:47:10.401Z,13.56
2023-01-05T13:50:18.390Z,12.64
2023-01-05T13:53:18.389Z,12.91
2023-01-05T13:56:05.918Z,13.97
2023-01-05T13:59:24.406Z,14.56
2023-01-05T14:02:00.700Z,15.36
2023-01-05T14:04:32.760Z,16.77
2023-01-05T14:07:15.743Z,16.77
2023-01-05T14:09:57.269Z,15.81
2023-01-05T14:12:25.623Z,15.29
2023-01-05T14:15:12.363Z,15.73
2023-01-05T14:18:02.321Z,15.08
2023-01-05T14:20:35.327Z,14.69
2023-01-05T14:23:30.557Z,14.40
2023-01-05T14:25:57.860Z,12.84
2023-01-05T14:28:30.936Z,14.11
2023-01-05T14:31:17.533Z,12.33
2023-01-05T14:33:59.510Z,12.10
2023-01-05T14:36:44.499Z,11.27
2023-01-05T14:39:18.157Z,11.30
2023-01-05T14:42:05.594Z,10.82
2023-01-05T14:44:51.927Z,10.76
2023-01-05T14:47:41.270Z,10.30
2023-01-05T14:50:35.101Z,10.54
2023-01-05T14:53:10.145Z,10.91
2023-01-05T14:55:52.165Z,10.39
2023-01-05T14:58:37.037Z,10.33
2023-01-05T15:01:16.860Z,10.09
2023-01-05T15:04:31.579Z,10.14
2023-01-05T15:07:26.472Z,10.07
2023-01-05T15:10:36.799Z,10.49
2023-01-05T15:17:09.689Z,10.09
2023-01-05T15:20:05.302Z,10.37
2023-01-05T15:23:00.563Z,9.98
2023-01-05T15:25:57.847Z,10.33
2023-01-05T15:28:48.856Z,10.16
2023-01-05T15:31:49.624Z,10.21
2023-01-05T15:34:54.179Z,10.90
2023-01-05T15:37:25.330Z,9.98
2023-01-05T15:39:57.583Z,10.40
2023-01-05T15:42:43.839Z,10.33
2023-01-05T15:49:28.950Z,10.09
2023-01-05T15:55:35.715Z,10.32
2023-01-05T15:58:16.187Z,10.57
2023-01-05T16:00:46.344Z,10.12
2023-01-05T16:03:28.501Z,10.21
2023-01-05T16:06:29.052Z,10.71
2023-01-05T16:09:30.053Z,9.71
2023-01-05T16:12:26.483Z,9.99
2023-01-05T16:15:04.671Z,10.13
2023-01-05T16:18:12.115Z,10.04
2023-01-05T16:21:00.532Z,10.30
2023-01-05T16:23:55.854Z,10.30
2023-01-05T16:32:06.001Z,9.98
2023-01-05T16:34:33.166Z,10.17
2023-01-05T16:37:05.248Z,10.17
2023-01-05T16:39:42.580Z,9.98
2023-01-05T16:48:46.937Z,9.99
2023-01-05T16:51:20.070Z,10.24
2023-01-05T16:54:10.069Z,10.20
2023-01-05T16:57:37.222Z,10.05
2023-01-05T17:00:26.235Z,10.01
2023-01-05T17:02:54.477Z,10.11
2023-01-05T17:05:51.320Z,10.23
2023-01-05T17:08:27.999Z,10.53
2023-01-05T17:11:02.749Z,10.20
2023-01-05T17:13:37.336Z,10.33
2023-01-05T17:16:05.647Z,10.19
2023-01-05T17:18:32.417Z,10.35
2023-01-05T17:21:05.478Z,10.52
2023-01-05T17:23:47.245Z,10.41
2023-01-05T17:26:27.357Z,10.13
2023-01-05T17:28:57.695Z,10.97
2023-01-05T17:31:27.541Z,10.89
2023-01-05T17:33:54.419Z,10.17
2023-01-05T17:36:25.336Z,9.74
2023-01-05T17:38:51.891Z,10.38
2023-01-05T17:41:18.582Z,10.22
2023-01-05T17:43:45.667Z,10.87
2023-01-05T17:46:21.558Z,10.69
2023-01-05T17:48:49.029Z,10.01
2023-01-05T17:51:15.902Z,10.32
2023-01-05T17:53:42.454Z,10.18
2023-01-05T17:56:08.961Z,9.90
2023-01-05T17:58:35.639Z,10.44
2023-01-05T18:01:03.878Z,10.45
2023-01-05T18:03:30.743Z,10.43
2023-01-05T18:06:00.458Z,10.14
2023-01-05T18:08:27.104Z,9.76
2023-01-05T18:10:53.813Z,10.69
2023-01-05T18:13:22.600Z,10.32
2023-01-05T18:15:51.654Z,10.33
2023-01-05T18:18:18.657Z,9.99
2023-01-05T18:20:45.226Z,9.99
2023-01-05T18:23:11.895Z,10.16
2023-01-05T18:25:39.594Z,10.05
2023-01-05T18:28:06.473Z,9.43
2023-01-05T18:30:33.323Z,9.99
2023-01-05T18:33:00.782Z,9.66
2023-01-05T18:35:27.653Z,10.56
2023-01-05T18:40:21.596Z,11.03
2023-01-05T18:42:48.194Z,11.07
2023-01-05T18:45:19.486Z,11.20
2023-01-05T18:47:55.737Z,11.20
2023-01-05T18:50:22.256Z,11.20
2023-01-05T18:52:48.875Z,11.35
2023-01-05T18:55:15.501Z,11.33
2023-01-05T18:57:44.857Z,11.61
2023-01-05T19:00:12.378Z,11.58
2023-01-05T19:02:42.876Z,11.54
2023-01-05T19:05:17.781Z,11.42
2023-01-05T19:07:44.454Z,11.51
2023-01-05T19:10:11.066Z,11.48
2023-01-05T19:12:37.611Z,11.56
2023-01-05T19:15:04.529Z,11.57
2023-01-05T19:17:33.707Z,11.62
2023-01-05T19:20:00.338Z,10.82
2023-01-05T19:22:27.144Z,10.77
2023-01-05T19:24:53.921Z,10.52
2023-01-05T19:27:21.744Z,10.42
2023-01-05T19:29:48.461Z,10.37
2023-01-05T19:32:15.112Z,10.66
2023-01-05T19:34:42.615Z,10.51
2023-01-05T19:37:09.245Z,10.33
2023-01-05T19:39:36.858Z,9.60
2023-01-05T19:42:03.817Z,9.92
2023-01-05T19:44:30.730Z,9.92
2023-01-05T19:46:58.248Z,9.97
2023-01-05T19:49:26.633Z,10.09
2023-01-05T19:51:54.104Z,10.02
2023-01-05T19:54:22.773Z,10.16
2023-01-05T19:56:49.739Z,10.47
2023-01-05T19:59:22.902Z,9.64
2023-01-05T20:01:49.614Z,10.10
2023-01-05T20:04:16.320Z,9.48
2023-01-05T20:06:46.182Z,9.67
2023-01-05T20:09:16.358Z,9.93
2023-01-05T20:11:47.777Z,9.93
2023-01-05T20:14:25.732Z,9.42
2023-01-05T20:16:57.691Z,10.13
2023-01-05T20:19:26.875Z,9.33
2023-01-05T20:21:54.826Z,10.00
2023-01-05T20:24:24.730Z,10.05
2023-01-05T20:26:54.074Z,10.42
2023-01-05T20:29:23.025Z,10.18
2023-01-05T20:31:58.667Z,9.99
2023-01-05T20:34:29.777Z,10.11
2023-01-05T20:36:56.576Z,9.98
2023-01-05T20:39:23.280Z,10.12
2023-01-05T20:41:56.930Z,9.91
2023-01-05T20:44:26.610Z,9.76
2023-01-05T20:46:54.453Z,9.60
2023-01-05T20:49:22.534Z,10.03
2023-01-05T20:51:50.047Z,9.72
2023-01-05T20:54:17.199Z,9.81
2023-01-05T20:56:46.344Z,9.04
2023-01-05T20:59:28.959Z,9.05
2023-01-05T21:01:57.480Z,9.09
2023-01-05T21:04:25.575Z,9.32
2023-01-05T21:06:54.481Z,9.49
2023-01-05T21:09:22.867Z,9.69
2023-01-05T21:11:49.538Z,9.48
2023-01-05T21:14:17.473Z,9.60
2023-01-05T21:16:49.975Z,9.92
2023-01-05T21:19:20.054Z,10.29
2023-01-05T21:21:48.417Z,9.94
2023-01-05T21:24:16.744Z,9.70
2023-01-05T21:26:43.885Z,9.41
2023-01-05T21:29:41.201Z,9.05
2023-01-05T21:32:07.816Z,8.62
2023-01-05T21:34:34.584Z,8.27
2023-01-05T21:37:01.113Z,8.75
2023-01-05T21:39:28.695Z,8.89
2023-01-05T21:42:18.253Z,9.10
2023-01-05T21:44:44.799Z,9.17
2023-01-05T21:47:11.676Z,8.79
2023-01-05T21:49:39.045Z,8.98
2023-01-05T21:52:25.152Z,8.92
2023-01-05T21:55:10.721Z,9.18
2023-01-05T21:57:42.399Z,9.33
2023-01-05T22:00:09.692Z,9.09
2023-01-05T22:02:36.302Z,9.08
2023-01-05T22:05:13.187Z,9.47
2023-01-05T22:07:40.074Z,8.84
2023-01-05T22:10:07.052Z,8.84
2023-01-05T22:12:33.671Z,9.02
2023-01-05T22:15:00.477Z,9.21
2023-01-05T22:17:27.238Z,9.33
2023-01-05T22:20:19.181Z,9.51
2023-01-05T22:22:45.852Z,9.34
2023-01-05T22:25:12.390Z,9.86
2023-01-05T22:27:39.137Z,9.72
2023-01-05T22:30:06.521Z,9.53
2023-01-05T22:32:35.247Z,8.81
2023-01-05T22:35:02.075Z,9.23
2023-01-05T22:37:28.665Z,9.34
2023-01-05T22:39:55.353Z,9.03
2023-01-05T22:42:21.856Z,9.18
2023-01-05T22:44:48.333Z,9.66
2023-01-05T22:47:15.029Z,9.69
2023-01-05T22:49:41.625Z,9.69
2023-01-05T22:52:08.178Z,9.89
2023-01-05T22:54:34.798Z,9.48
2023-01-05T22:57:01.397Z,9.93
2023-01-05T22:59:28.740Z,9.43
